createdAt,value
2023-05-15T00:00:30.842Z,6.00
2023-05-15T00:02:58.996Z,6.00
2023-05-15T00:05:27.369Z,5.80
2023-05-15T00:07:57.001Z,6.43
2023-05-15T00:10:25.176Z,6.50
2023-05-15T00:12:55.998Z,6.43
2023-05-15T00:15:27.297Z,6.47
2023-05-15T00:17:55.646Z,6.70
2023-05-15T00:20:23.766Z,6.37
2023-05-15T00:22:51.965Z,7.17
2023-05-15T00:25:21.579Z,7.47
2023-05-15T00:27:49.667Z,7.40
2023-05-15T00:30:17.833Z,8.00
2023-05-15T00:32:46.012Z,7.20
2023-05-15T00:35:14.134Z,6.80
2023-05-15T00:37:42.320Z,7.50
2023-05-15T00:40:12.184Z,7.23
2023-05-15T00:42:41.782Z,7.60
2023-05-15T00:45:10.985Z,7.33
2023-05-15T00:47:42.249Z,7.23
2023-05-15T00:50:11.347Z,8.60
2023-05-15T00:52:39.604Z,8.03
2023-05-15T00:55:08.267Z,8.40
2023-05-15T00:57:36.341Z,8.40
2023-05-15T01:00:10.443Z,8.47
2023-05-15T01:02:38.727Z,9.43
2023-05-15T01:05:15.108Z,9.53
2023-05-15T01:07:46.761Z,9.40
2023-05-15T01:10:14.912Z,9.33
2023-05-15T01:12:43.084Z,9.53
2023-05-15T01:15:12.913Z,9.93
2023-05-15T01:17:41.103Z,10.00
2023-05-15T01:20:10.680Z,9.90
2023-05-15T01:22:45.901Z,10.60
2023-05-15T01:25:42.269Z,10.60
2023-05-15T01:28:12.828Z,10.60
2023-05-15T01:30:41.938Z,10.97
2023-05-15T01:33:18.014Z,10.67
2023-05-15T01:35:48.403Z,11.10
2023-05-15T01:38:20.372Z,11.70
2023-05-15T01:40:48.972Z,11.93
2023-05-15T01:43:20.548Z,12.27
2023-05-15T01:45:48.677Z,12.70
2023-05-15T01:48:16.860Z,13.53
2023-05-15T01:50:45.029Z,12.97
2023-05-15T01:53:26.320Z,12.40
2023-05-15T01:55:56.135Z,12.80
2023-05-15T01:58:26.123Z,13.10
2023-05-15T02:00:54.232Z,14.13
2023-05-15T02:03:22.468Z,13.43
2023-05-15T02:05:50.737Z,13.93
2023-05-15T02:08:18.896Z,13.47
2023-05-15T02:10:47.123Z,12.90
2023-05-15T02:13:15.218Z,13.30
2023-05-15T02:15:44.765Z,13.47
2023-05-15T02:18:12.911Z,14.00
2023-05-15T02:20:41.108Z,13.00
2023-05-15T02:23:09.223Z,13.43
2023-05-15T02:25:42.649Z,14.43
2023-05-15T02:28:12.457Z,14.43
2023-05-15T02:30:45.207Z,14.60
2023-05-15T02:33:16.485Z,14.20
2023-05-15T02:35:48.685Z,14.20
2023-05-15T02:38:18.128Z,14.70
2023-05-15T02:40:46.849Z,14.60
2023-05-15T02:43:15.731Z,15.20
2023-05-15T02:45:45.431Z,14.57
2023-05-15T02:48:19.570Z,14.63
2023-05-15T02:50:47.682Z,15.43
2023-05-15T02:53:16.262Z,15.93
2023-05-15T02:55:44.447Z,15.83
2023-05-15T02:58:12.613Z,18.03
2023-05-15T03:00:40.863Z,16.23
2023-05-15T03:03:10.436Z,16.73
2023-05-15T03:05:38.491Z,16.90
2023-05-15T03:08:07.063Z,17.17
2023-05-15T03:10:35.174Z,17.70
2023-05-15T03:13:03.750Z,17.83
2023-05-15T03:15:32.086Z,19.37
2023-05-15T03:18:00.393Z,16.97
2023-05-15T03:20:30.120Z,19.10
2023-05-15T03:22:58.287Z,19.00
2023-05-15T03:25:26.986Z,19.00
2023-05-15T03:27:55.454Z,21.13
2023-05-15T03:30:23.589Z,19.80
2023-05-15T03:32:51.893Z,19.73
2023-05-15T03:35:20.225Z,19.90
2023-05-15T03:37:49.849Z,21.70
2023-05-15T03:40:18.225Z,20.53
2023-05-15T03:42:46.521Z,20.73
2023-05-15T03:45:14.716Z,20.97
2023-05-15T03:47:43.483Z,22.00
2023-05-15T03:50:12.269Z,20.97
2023-05-15T03:52:42.194Z,22.13
2023-05-15T03:55:12.006Z,22.00
2023-05-15T03:57:41.557Z,23.17
2023-05-15T04:00:11.173Z,24.33
2023-05-15T04:02:39.538Z,22.43
2023-05-15T04:05:11.314Z,24.97
2023-05-15T04:07:39.551Z,25.50
2023-05-15T04:10:09.182Z,26.57
2023-05-15T04:12:38.844Z,25.90
2023-05-15T04:15:16.956Z,26.67
2023-05-15T04:17:45.211Z,27.60
2023-05-15T04:20:14.244Z,26.90
2023-05-15T04:22:42.490Z,28.63
2023-05-15T04:25:11.889Z,29.50
2023-05-15T04:27:41.565Z,29.90
2023-05-15T04:30:10.477Z,30.17
2023-05-15T04:32:39.708Z,30.27
2023-05-15T04:35:10.272Z,30.70
2023-05-15T04:37:38.523Z,31.60
2023-05-15T04:40:08.281Z,32.77
2023-05-15T04:42:37.785Z,34.27
2023-05-15T04:45:09.515Z,35.60
2023-05-15T04:47:37.823Z,37.70
2023-05-15T04:50:06.724Z,37.17
2023-05-15T04:52:34.840Z,36.20
2023-05-15T04:55:03.514Z,37.50
2023-05-15T04:57:31.765Z,39.10
2023-05-15T05:00:00.174Z,37.10
2023-05-15T05:02:29.821Z,41.10
2023-05-15T05:04:57.945Z,40.40
2023-05-15T05:07:26.060Z,40.47
2023-05-15T05:09:54.130Z,36.90
2023-05-15T05:12:22.233Z,38.80
2023-05-15T05:14:50.341Z,41.27
2023-05-15T05:17:19.010Z,40.50
2023-05-15T05:19:48.546Z,38.77
2023-05-15T05:22:16.723Z,40.43
2023-05-15T05:24:44.804Z,42.20
2023-05-15T05:27:12.999Z,39.80
2023-05-15T05:29:41.106Z,38.73
2023-05-15T05:32:09.571Z,38.33
2023-05-15T05:34:37.806Z,41.30
2023-05-15T05:37:07.538Z,40.37
2023-05-15T05:39:36.146Z,38.80
2023-05-15T05:42:04.405Z,38.10
2023-05-15T05:44:32.587Z,39.13
2023-05-15T05:47:00.829Z,39.67
2023-05-15T05:49:28.941Z,39.93
2023-05-15T05:51:57.074Z,41.07
2023-05-15T05:54:26.718Z,42.57
2023-05-15T05:56:54.874Z,41.87
2023-05-15T05:59:23.125Z,39.30
2023-05-15T06:01:51.328Z,40.63
2023-05-15T06:04:21.194Z,41.17
2023-05-15T06:06:50.208Z,39.70
2023-05-15T06:09:18.717Z,41.40
2023-05-15T06:11:48.257Z,42.23
2023-05-15T06:14:16.308Z,41.57
2023-05-15T06:16:44.521Z,41.67
2023-05-15T06:19:12.775Z,42.03
2023-05-15T06:21:41.019Z,41.33
2023-05-15T06:24:09.409Z,41.47
2023-05-15T06:26:37.496Z,39.80
2023-05-15T06:29:07.127Z,41.67
2023-05-15T06:31:38.087Z,39.40
2023-05-15T06:34:06.477Z,39.13
2023-05-15T06:36:35.445Z,36.90
2023-05-15T06:39:03.602Z,36.57
2023-05-15T06:41:31.842Z,38.43
2023-05-15T06:44:00.105Z,37.10
2023-05-15T06:46:29.791Z,38.53
2023-05-15T06:48:58.108Z,36.83
2023-05-15T06:51:26.334Z,38.90
2023-05-15T06:53:54.627Z,38.40
2023-05-15T06:56:22.850Z,39.30
2023-05-15T06:58:50.941Z,39.50
2023-05-15T07:01:19.189Z,39.23
2023-05-15T07:03:48.772Z,37.83
2023-05-15T07:06:16.929Z,40.23
2023-05-15T07:08:45.102Z,38.60
2023-05-15T07:11:13.313Z,40.00
2023-05-15T07:13:41.416Z,38.80
2023-05-15T07:16:09.554Z,38.70
2023-05-15T07:18:37.827Z,40.83
2023-05-15T07:21:09.205Z,39.20
2023-05-15T07:23:37.426Z,39.70
2023-05-15T07:26:05.933Z,37.30
2023-05-15T07:28:35.415Z,37.20
2023-05-15T07:31:03.543Z,39.10
2023-05-15T07:33:31.670Z,38.97
2023-05-15T07:35:59.797Z,40.80
2023-05-15T07:38:29.363Z,40.07
2023-05-15T07:40:57.492Z,38.83
2023-05-15T07:43:25.778Z,36.60
2023-05-15T07:45:53.956Z,39.60
2023-05-15T07:48:22.675Z,39.17
2023-05-15T07:50:52.375Z,37.30
2023-05-15T07:53:28.859Z,37.77
2023-05-15T07:55:58.376Z,35.00
2023-05-15T07:58:26.455Z,34.83
2023-05-15T08:00:54.608Z,36.03
2023-05-15T08:03:23.093Z,33.80
2023-05-15T08:05:51.939Z,33.67
2023-05-15T08:08:20.106Z,33.67
2023-05-15T08:10:48.308Z,33.63
2023-05-15T08:13:17.871Z,31.97
2023-05-15T08:15:46.079Z,31.33
2023-05-15T08:18:14.300Z,30.63
2023-05-15T08:20:42.380Z,32.07
2023-05-15T08:23:10.552Z,30.03
2023-05-15T08:25:38.715Z,31.07
2023-05-15T08:28:07.051Z,30.40
2023-05-15T08:30:36.575Z,29.70
2023-05-15T08:33:04.783Z,31.20
2023-05-15T08:35:33.072Z,30.47
2023-05-15T08:38:01.202Z,28.43
2023-05-15T08:43:04.960Z,29.40
2023-05-15T08:45:33.044Z,27.67
2023-05-15T08:48:02.645Z,27.57
2023-05-15T08:50:30.880Z,28.70
2023-05-15T08:53:00.378Z,27.10
2023-05-15T08:55:29.017Z,26.40
2023-05-15T08:57:57.196Z,27.83
2023-05-15T09:00:26.895Z,28.33
2023-05-15T09:02:55.777Z,29.00
2023-05-15T09:05:25.519Z,27.00
2023-05-15T09:07:54.255Z,26.27
2023-05-15T09:10:22.480Z,25.33
2023-05-15T09:12:51.973Z,25.30
2023-05-15T09:15:22.482Z,26.30
2023-05-15T09:17:50.887Z,26.80
2023-05-15T09:20:31.084Z,27.03
2023-05-15T09:22:59.516Z,24.90
2023-05-15T09:25:38.687Z,25.77
2023-05-15T09:28:06.825Z,23.03
2023-05-15T09:30:34.930Z,24.60
2023-05-15T09:33:04.806Z,26.00
2023-05-15T09:35:34.775Z,24.80
2023-05-15T09:38:05.645Z,25.23
2023-05-15T09:40:33.808Z,25.07
2023-05-15T09:43:01.985Z,24.73
2023-05-15T09:45:31.657Z,24.63
2023-05-15T09:48:08.634Z,24.83
2023-05-15T09:50:39.936Z,23.00
2023-05-15T09:53:08.099Z,25.47
2023-05-15T09:55:36.388Z,24.23
2023-05-15T09:58:09.054Z,22.40
2023-05-15T10:00:47.648Z,22.67
2023-05-15T10:03:18.350Z,23.50
2023-05-15T10:05:47.960Z,23.70
2023-05-15T10:08:16.213Z,22.13
2023-05-15T10:10:44.622Z,23.67
2023-05-15T10:13:12.784Z,22.60
2023-05-15T10:15:41.102Z,24.07
2023-05-15T10:18:09.444Z,22.43
2023-05-15T10:20:54.421Z,22.07
2023-05-15T10:23:23.954Z,21.50
2023-05-15T10:25:54.636Z,21.63
2023-05-15T10:28:22.741Z,20.90
2023-05-15T10:30:50.932Z,20.87
2023-05-15T10:33:19.053Z,20.20
2023-05-15T10:35:47.174Z,20.37
2023-05-15T10:38:15.310Z,19.93
2023-05-15T10:40:44.837Z,19.53
2023-05-15T10:43:12.956Z,20.50
2023-05-15T10:45:41.072Z,19.00
2023-05-15T10:48:09.249Z,19.83
2023-05-15T10:50:38.211Z,19.10
2023-05-15T10:55:51.774Z,18.70
2023-05-15T10:58:22.931Z,18.07
2023-05-15T11:00:51.257Z,17.83
2023-05-15T11:03:47.964Z,17.60
2023-05-15T11:06:17.187Z,17.53
2023-05-15T11:08:46.117Z,18.50
2023-05-15T11:11:46.893Z,16.50
2023-05-15T11:14:16.421Z,18.20
2023-05-15T11:17:04.997Z,16.50
2023-05-15T11:19:34.858Z,15.93
2023-05-15T11:22:03.856Z,15.73
2023-05-15T11:24:32.144Z,15.87
2023-05-15T11:27:04.165Z,15.23
2023-05-15T11:29:33.677Z,16.50
2023-05-15T11:32:01.857Z,16.30
2023-05-15T11:34:33.915Z,15.80
2023-05-15T11:37:02.172Z,14.53
2023-05-15T11:39:30.614Z,15.80
2023-05-15T11:41:59.822Z,15.20
2023-05-15T11:44:29.113Z,14.30
2023-05-15T11:46:58.653Z,14.37
2023-05-15T11:49:26.880Z,14.90
2023-05-15T11:51:54.957Z,14.40
2023-05-15T11:54:23.119Z,15.60
2023-05-15T11:56:51.274Z,14.73
2023-05-15T11:59:22.276Z,13.93
2023-05-15T12:01:50.373Z,13.10
2023-05-15T12:04:20.232Z,14.00
2023-05-15T12:06:49.659Z,14.87
2023-05-15T12:09:19.565Z,13.80
2023-05-15T12:11:51.963Z,13.27
2023-05-15T12:14:27.392Z,13.83
2023-05-15T12:16:58.279Z,14.03
2023-05-15T12:19:30.569Z,13.10
2023-05-15T12:21:58.700Z,11.83
2023-05-15T12:24:27.683Z,12.30
2023-05-15T12:26:57.478Z,12.30
2023-05-15T12:29:25.949Z,12.60
2023-05-15T12:31:54.640Z,12.20
2023-05-15T12:34:22.843Z,12.77
2023-05-15T12:36:52.498Z,12.20
2023-05-15T12:39:20.718Z,12.93
2023-05-15T12:41:50.069Z,11.87
2023-05-15T12:44:18.446Z,12.10
2023-05-15T12:46:47.255Z,12.13
2023-05-15T12:49:15.428Z,11.10
2023-05-15T12:51:46.718Z,11.00
2023-05-15T12:54:19.797Z,12.80
2023-05-15T12:56:48.609Z,12.00
2023-05-15T12:59:16.754Z,11.27
2023-05-15T13:01:44.966Z,11.10
2023-05-15T13:04:13.843Z,11.87
2023-05-15T13:06:46.754Z,12.00
2023-05-15T13:09:16.123Z,12.27
2023-05-15T13:11:46.490Z,11.33
2023-05-15T13:14:17.642Z,11.67
2023-05-15T13:16:46.982Z,10.23
2023-05-15T13:19:15.915Z,11.37
2023-05-15T13:21:53.096Z,11.33
2023-05-15T13:24:21.358Z,11.33
2023-05-15T13:26:52.379Z,10.30
2023-05-15T13:29:20.932Z,11.17
2023-05-15T13:31:49.280Z,11.87
2023-05-15T13:34:17.425Z,11.00
2023-05-15T13:36:45.679Z,11.10
2023-05-15T13:39:13.915Z,11.50
2023-05-15T13:41:42.057Z,10.30
2023-05-15T13:44:12.112Z,9.60
2023-05-15T13:46:40.311Z,9.90
2023-05-15T13:49:08.483Z,10.13
2023-05-15T13:51:36.563Z,9.73
2023-05-15T13:56:47.712Z,10.20
2023-05-15T13:59:17.312Z,9.07
2023-05-15T14:01:45.410Z,10.23
2023-05-15T14:04:13.602Z,9.47
2023-05-15T14:06:42.051Z,9.30
2023-05-15T14:09:10.162Z,9.40
2023-05-15T14:11:38.273Z,8.97
2023-05-15T14:14:06.421Z,8.77
2023-05-15T14:16:35.990Z,9.60
2023-05-15T14:19:04.187Z,9.23
2023-05-15T14:21:32.911Z,9.47
2023-05-15T14:24:01.251Z,9.33
2023-05-15T14:26:29.885Z,9.23
2023-05-15T14:29:01.655Z,9.30
2023-05-15T14:31:29.938Z,9.53
2023-05-15T14:33:59.512Z,8.67
2023-05-15T14:36:27.881Z,8.10
2023-05-15T14:39:00.414Z,8.90
2023-05-15T14:41:50.167Z,9.00
2023-05-15T14:44:18.316Z,8.30
2023-05-15T14:46:46.543Z,8.70
2023-05-15T14:49:16.117Z,8.53
2023-05-15T14:51:44.264Z,8.80
2023-05-15T14:54:12.402Z,8.30
2023-05-15T14:56:40.469Z,8.97
2023-05-15T14:59:08.633Z,7.80
2023-05-15T15:01:37.351Z,8.17
2023-05-15T15:04:06.200Z,8.40
2023-05-15T15:06:35.810Z,7.87
2023-05-15T15:09:03.946Z,8.13
2023-05-15T15:11:32.237Z,7.87
2023-05-15T15:14:00.785Z,7.70
2023-05-15T15:16:28.989Z,7.93
2023-05-15T15:18:57.278Z,7.90
2023-05-15T15:21:25.517Z,7.37
2023-05-15T15:23:56.908Z,7.60
2023-05-15T15:26:25.036Z,8.20
2023-05-15T15:28:53.774Z,7.03
2023-05-15T15:31:22.186Z,7.10
2023-05-15T15:33:52.590Z,7.60
2023-05-15T15:36:21.288Z,6.13
2023-05-15T15:38:49.600Z,6.60
2023-05-15T15:41:21.228Z,7.30
2023-05-15T15:43:49.363Z,7.20
2023-05-15T15:46:24.745Z,6.80
2023-05-15T15:48:53.007Z,6.90
2023-05-15T15:51:21.153Z,7.50
2023-05-15T15:53:49.354Z,6.63
2023-05-15T15:56:22.455Z,6.83
2023-05-15T15:58:50.624Z,6.73
2023-05-15T16:01:18.898Z,7.10
2023-05-15T16:03:47.112Z,6.80
2023-05-15T16:06:15.264Z,6.73
2023-05-15T16:08:43.370Z,6.70
2023-05-15T16:11:11.774Z,6.80
2023-05-15T16:13:41.372Z,6.40
2023-05-15T16:16:09.626Z,6.80
2023-05-15T16:18:37.873Z,6.63
2023-05-15T16:21:06.190Z,6.47
2023-05-15T16:23:58.277Z,6.63
2023-05-15T16:26:26.825Z,7.23
2023-05-15T16:28:56.982Z,6.67
2023-05-15T16:31:30.139Z,6.47
2023-05-15T16:34:00.333Z,6.03
2023-05-15T16:36:30.315Z,7.10
2023-05-15T16:38:58.630Z,6.53
2023-05-15T16:41:26.912Z,6.90
2023-05-15T16:43:56.426Z,6.70
2023-05-15T16:46:24.794Z,6.80
2023-05-15T16:48:52.976Z,6.10
2023-05-15T16:51:21.569Z,6.17
2023-05-15T16:53:50.005Z,6.60
2023-05-15T16:56:31.915Z,6.70
2023-05-15T16:59:07.208Z,6.07
2023-05-15T17:01:38.377Z,6.53
2023-05-15T17:04:11.475Z,6.30
2023-05-15T17:06:39.780Z,6.43
2023-05-15T17:09:08.141Z,6.00
2023-05-15T17:11:36.255Z,5.77
2023-05-15T17:14:06.161Z,6.03
2023-05-15T17:16:34.359Z,6.30
2023-05-15T17:19:02.607Z,6.10
2023-05-15T17:21:31.843Z,5.43
2023-05-15T17:24:00.014Z,6.40
2023-05-15T17:26:28.193Z,6.50
2023-05-15T17:28:56.359Z,6.00
2023-05-15T17:31:26.940Z,5.50
2023-05-15T17:34:01.489Z,5.77
2023-05-15T17:36:29.580Z,5.97
2023-05-15T17:38:58.054Z,5.53
2023-05-15T17:41:26.251Z,6.17
2023-05-15T17:43:54.434Z,6.10
2023-05-15T17:46:22.654Z,5.63
2023-05-15T17:48:53.242Z,6.40
2023-05-15T17:51:21.919Z,5.60
2023-05-15T17:53:50.053Z,5.57
2023-05-15T17:56:18.697Z,5.53
2023-05-15T17:58:46.930Z,5.23
2023-05-15T18:01:15.571Z,5.80
2023-05-15T18:03:43.832Z,5.17
2023-05-15T18:06:14.099Z,5.30
2023-05-15T18:08:44.637Z,5.70
2023-05-15T18:11:21.340Z,5.80
2023-05-15T18:13:50.343Z,5.30
2023-05-15T18:16:19.069Z,6.17
2023-05-15T18:18:49.435Z,5.43
2023-05-15T18:21:19.252Z,5.50
2023-05-15T18:23:47.345Z,5.43
2023-05-15T18:26:15.513Z,5.40
2023-05-15T18:29:11.691Z,6.10
2023-05-15T18:31:39.898Z,5.50
2023-05-15T18:34:08.079Z,5.10
2023-05-15T18:36:37.648Z,5.00
2023-05-15T18:39:05.835Z,5.30
2023-05-15T18:41:37.061Z,5.43
2023-05-15T18:44:05.485Z,5.57
2023-05-15T18:46:34.248Z,5.80
2023-05-15T18:49:02.444Z,6.93
2023-05-15T18:51:31.218Z,6.50
2023-05-15T18:54:01.315Z,6.10
2023-05-15T18:56:29.562Z,7.63
2023-05-15T18:58:59.849Z,7.37
2023-05-15T19:01:28.256Z,7.30
2023-05-15T19:03:56.452Z,7.83
2023-05-15T19:06:24.625Z,7.80
2023-05-15T19:08:52.782Z,9.07
2023-05-15T19:11:22.518Z,8.70
2023-05-15T19:13:50.702Z,8.80
2023-05-15T19:16:20.246Z,7.53
2023-05-15T19:18:48.386Z,8.33
2023-05-15T19:21:17.661Z,8.37
2023-05-15T19:23:45.805Z,8.80
2023-05-15T19:26:13.950Z,8.70
2023-05-15T19:28:43.478Z,9.40
2023-05-15T19:31:20.361Z,8.97
2023-05-15T19:33:56.034Z,9.87
2023-05-15T19:36:24.203Z,9.50
2023-05-15T19:38:52.347Z,9.80
2023-05-15T19:41:26.391Z,10.80
2023-05-15T19:43:55.960Z,10.27
2023-05-15T19:46:24.152Z,9.70
2023-05-15T19:48:52.388Z,8.63
2023-05-15T19:51:27.003Z,9.00
2023-05-15T19:53:56.684Z,9.40
2023-05-15T19:56:25.366Z,8.87
2023-05-15T19:58:53.513Z,8.80
2023-05-15T20:01:23.080Z,8.80
2023-05-15T20:03:51.369Z,8.33
2023-05-15T20:06:20.814Z,8.30
2023-05-15T20:08:48.948Z,8.00
2023-05-15T20:11:17.144Z,8.20
2023-05-15T20:13:45.608Z,7.70
2023-05-15T20:16:16.557Z,7.47
2023-05-15T20:18:48.047Z,7.50
2023-05-15T20:21:16.881Z,7.00
2023-05-15T20:23:45.644Z,7.30
2023-05-15T20:26:13.755Z,7.23
2023-05-15T20:28:44.373Z,6.20
2023-05-15T20:31:13.327Z,7.30
2023-05-15T20:33:41.654Z,7.13
2023-05-15T20:36:11.178Z,6.67
2023-05-15T20:38:39.630Z,6.80
2023-05-15T20:41:10.638Z,6.27
2023-05-15T20:43:39.669Z,6.63
2023-05-15T20:46:10.122Z,6.40
2023-05-15T20:48:38.310Z,6.73
2023-05-15T20:51:06.427Z,6.03
2023-05-15T20:53:39.939Z,6.00
2023-05-15T20:56:08.073Z,5.57
2023-05-15T20:58:36.483Z,5.80
2023-05-15T21:01:04.668Z,6.20
2023-05-15T21:03:32.888Z,6.27
2023-05-15T21:06:02.297Z,5.47
2023-05-15T21:08:30.439Z,6.43
2023-05-15T21:11:00.143Z,6.10
2023-05-15T21:13:29.323Z,5.67
2023-05-15T21:15:57.453Z,5.50
2023-05-15T21:18:25.634Z,5.57
2023-05-15T21:20:53.795Z,5.70
2023-05-15T21:23:22.170Z,5.10
2023-05-15T21:25:50.269Z,5.53
2023-05-15T21:28:19.801Z,5.63
2023-05-15T21:30:50.791Z,5.60
2023-05-15T21:33:18.946Z,5.40
2023-05-15T21:35:47.594Z,5.10
2023-05-15T21:38:15.785Z,5.03
2023-05-15T21:40:44.113Z,5.03
2023-05-15T21:43:12.233Z,4.40
2023-05-15T21:45:41.863Z,4.90
2023-05-15T21:48:10.170Z,4.67
2023-05-15T21:50:38.324Z,5.27
2023-05-15T21:53:06.478Z,4.70
2023-05-15T21:55:34.591Z,5.13
2023-05-15T21:58:02.796Z,4.60
2023-05-15T22:00:31.048Z,4.87
2023-05-15T22:03:09.007Z,4.90
2023-05-15T22:05:37.293Z,4.83
2023-05-15T22:08:05.816Z,5.10
2023-05-15T22:10:34.050Z,5.30
2023-05-15T22:13:02.783Z,4.40
2023-05-15T22:15:31.066Z,4.60
2023-05-15T22:18:01.348Z,4.93
2023-05-15T22:20:35.500Z,4.40
2023-05-15T22:23:03.619Z,4.93
2023-05-15T22:25:31.796Z,4.50
2023-05-15T22:27:59.952Z,5.00
2023-05-15T22:30:28.281Z,4.80
2023-05-15T22:32:56.603Z,4.30
2023-05-15T22:35:26.575Z,4.80
2023-05-15T22:37:54.891Z,5.80
2023-05-15T22:40:23.050Z,4.87
2023-05-15T22:42:51.276Z,5.30
2023-05-15T22:45:19.510Z,5.30
2023-05-15T22:47:47.726Z,5.10
2023-05-15T22:50:16.303Z,5.97
2023-05-15T22:53:03.198Z,6.20
2023-05-15T22:55:31.460Z,5.50
2023-05-15T22:57:59.644Z,5.70
2023-05-15T23:00:27.987Z,6.13
2023-05-15T23:02:57.535Z,6.83
2023-05-15T23:05:25.963Z,7.13
2023-05-15T23:07:56.634Z,7.90
2023-05-15T23:10:26.320Z,7.83
2023-05-15T23:12:54.543Z,7.00
2023-05-15T23:15:22.674Z,8.60
2023-05-15T23:17:50.874Z,8.60
2023-05-15T23:20:19.170Z,8.27
2023-05-15T23:22:47.306Z,8.80
2023-05-15T23:25:18.449Z,9.50
2023-05-15T23:27:47.969Z,7.63
2023-05-15T23:30:16.921Z,8.57
2023-05-15T23:32:45.171Z,9.00
2023-05-15T23:35:13.277Z,8.70
2023-05-15T23:37:41.434Z,9.20
2023-05-15T23:40:10.418Z,8.77
2023-05-15T23:42:44.430Z,8.40
2023-05-15T23:45:15.081Z,9.00
2023-05-15T23:47:43.260Z,9.03
2023-05-15T23:50:11.650Z,8.40
2023-05-15T23:52:39.745Z,7.70
2023-05-15T23:55:08.751Z,9.17
2023-05-15T23:57:36.898Z,7.43
